EGHE/ISC METAR and TAF weather

Enter ICAO airport designator
Station Type Date Time Source
EGHE METAR 2018/04/23 10:50 UTC NOAA

EGHE 231050Z 23014KT 9999 FEW014 BKN034 13/09 Q1020


Station Type Date Time Source
EGHE Decoded METAR 2018/04/23 10:50 UTC NOAA

Scilly, Saint Mary'S, United Kingdom (EGHE) 49-55N 006-18W 0M
Apr 23, 2018 - 06:50 AM EDT / 2018.04.23 1050 UTC
Wind: from the SW (230 degrees) at 16 MPH (14 KT):0
Visibility: greater than 7 mile(s):0
Sky conditions: mostly cloudy
Temperature: 55 F (13 C)
Dew Point: 48 F (9 C)
Relative Humidity: 76%
Pressure (altimeter): 30.12 in. Hg (1020 hPa)
ob: EGHE 231050Z 23014KT 9999 FEW014 BKN034 13/09 Q1020
cycle: 11

Station Type Date Time Source
EGHE TAF UTC NOAA

Error!


Example: see airport list